createdAt,value
2022-07-31T00:00:44.481Z,98.58
2022-07-31T00:01:44.351Z,98.72
2022-07-31T00:02:44.872Z,98.43
2022-07-31T00:03:45.201Z,98.53
2022-07-31T00:04:45.752Z,98.24
2022-07-31T00:05:47.106Z,98.53
2022-07-31T00:06:46.446Z,98.53
2022-07-31T00:07:47.361Z,98.72
2022-07-31T00:08:48.557Z,99.1
2022-07-31T00:09:59.355Z,99.01
2022-07-31T00:10:49.256Z,99.25
2022-07-31T00:11:49.484Z,99.15
2022-07-31T00:12:49.708Z,99.1
2022-07-31T00:14:03.904Z,99.1
2022-07-31T00:14:50.396Z,99.73
2022-07-31T00:15:50.887Z,99.58
2022-07-31T00:16:51.509Z,99.97
2022-07-31T00:17:52.750Z,99.58
2022-07-31T00:18:53.658Z,99.58
2022-07-31T00:19:54.593Z,99.82
2022-07-31T00:20:55.524Z,99.05
2022-07-31T00:21:55.832Z,99.05
2022-07-31T00:22:56.089Z,99.05
2022-07-31T00:23:57.983Z,99.05
2022-07-31T00:24:57.179Z,98.96
2022-07-31T00:25:58.402Z,99.34
2022-07-31T00:26:59.067Z,99.15
2022-07-31T00:27:59.498Z,99.73
2022-07-31T00:29:00.440Z,99.34
2022-07-31T00:30:00.976Z,99.44
2022-07-31T00:31:01.195Z,98.96
2022-07-31T00:32:01.201Z,99.15
2022-07-31T00:33:02.415Z,99.44
2022-07-31T00:34:02.633Z,98.86
2022-07-31T00:35:03.546Z,98.86
2022-07-31T00:36:04.572Z,98.96
2022-07-31T00:37:05.394Z,99.05
2022-07-31T00:38:31.471Z,99.15
2022-07-31T00:39:06.782Z,99.25
2022-07-31T00:40:07.275Z,98.86
2022-07-31T00:41:08.191Z,99.15
2022-07-31T00:42:08.593Z,98.96
2022-07-31T00:43:09.212Z,98.86
2022-07-31T00:44:18.465Z,99.05
2022-07-31T00:45:13.318Z,99.15
2022-07-31T00:46:19.709Z,99.25
2022-07-31T00:47:13.180Z,99.15
2022-07-31T00:48:13.478Z,99.25
2022-07-31T00:49:14.483Z,99.25
2022-07-31T00:50:15.289Z,99.05
2022-07-31T00:51:15.935Z,99.25
2022-07-31T00:52:16.386Z,99.05
2022-07-31T00:53:17.033Z,99.05
2022-07-31T00:54:28.509Z,98.96
2022-07-31T00:55:18.430Z,99.34
2022-07-31T00:56:18.629Z,99.44
2022-07-31T00:57:19.556Z,99.44
2022-07-31T00:58:20.092Z,99.05
2022-07-31T00:59:24.673Z,99.44
2022-07-31T01:00:20.941Z,99.25
2022-07-31T01:01:22.215Z,99.05
2022-07-31T01:02:22.630Z,99.54
2022-07-31T01:03:23.849Z,99.99
2022-07-31T01:04:25.220Z,99.44
2022-07-31T01:05:24.599Z,99.82
2022-07-31T01:06:24.880Z,99.82
2022-07-31T01:07:25.235Z,99.92
2022-07-31T01:08:25.428Z,99.82
2022-07-31T01:09:26.349Z,99.54
2022-07-31T01:10:27.566Z,99.99
2022-07-31T01:11:27.474Z,99.99
2022-07-31T01:12:27.981Z,99.99
2022-07-31T01:13:28.471Z,99.92
2022-07-31T01:14:29.092Z,99.99
2022-07-31T01:15:30.371Z,99.82
2022-07-31T01:16:30.570Z,99.99
2022-07-31T01:17:31.469Z,99.99
2022-07-31T01:18:32.689Z,99.99
2022-07-31T01:19:48.004Z,99.73
2022-07-31T01:28:37.535Z,99.99
2022-07-31T01:29:38.038Z,99.82
2022-07-31T01:30:38.661Z,99.82
2022-07-31T01:31:39.366Z,99.73
2022-07-31T01:32:39.801Z,99.82
2022-07-31T01:33:43.062Z,99.63
2022-07-31T01:34:40.679Z,99.54
2022-07-31T01:35:41.832Z,99.77
2022-07-31T01:36:41.879Z,99.82
2022-07-31T01:37:42.232Z,99.99
2022-07-31T01:38:45.620Z,99.82
2022-07-31T01:39:43.376Z,99.92
2022-07-31T01:40:44.266Z,99.73
2022-07-31T01:41:45.189Z,99.92
2022-07-31T01:42:45.762Z,99.25
2022-07-31T01:43:45.983Z,99.05
2022-07-31T01:44:46.183Z,99.25
2022-07-31T01:45:47.676Z,99.82
2022-07-31T01:46:46.967Z,98.77
2022-07-31T01:47:47.161Z,98.96
2022-07-31T01:48:47.793Z,99.34
2022-07-31T01:49:48.264Z,99.25
2022-07-31T01:50:49.550Z,99.25
2022-07-31T01:51:49.497Z,99.34
2022-07-31T01:52:49.988Z,99.05
2022-07-31T01:53:50.889Z,99.54
2022-07-31T01:54:51.525Z,99.73
2022-07-31T01:56:08.107Z,99.54
2022-07-31T01:56:52.326Z,99.05
2022-07-31T01:57:52.545Z,99.63
2022-07-31T01:58:52.747Z,99.73
2022-07-31T01:59:54.663Z,99.73
2022-07-31T02:00:53.444Z,99.82
2022-07-31T02:01:56.136Z,99.73
2022-07-31T02:02:54.461Z,99.73
2022-07-31T02:04:01.610Z,99.73
2022-07-31T02:04:54.574Z,99.63
2022-07-31T02:05:55.204Z,99.15
2022-07-31T02:06:55.346Z,99.25
2022-07-31T02:07:56.541Z,98.86
2022-07-31T02:08:57.489Z,99.99
2022-07-31T02:10:04.287Z,99.25
2022-07-31T02:10:59.203Z,99.34
2022-07-31T02:12:00.572Z,99.25
2022-07-31T02:13:00.840Z,99.05
2022-07-31T02:14:01.537Z,99.82
2022-07-31T02:15:01.431Z,99.44
2022-07-31T02:16:02.345Z,99.82
2022-07-31T02:17:02.918Z,99.63
2022-07-31T02:18:03.716Z,99.73
2022-07-31T02:19:04.229Z,99.82
2022-07-31T02:20:05.620Z,99.63
2022-07-31T02:21:04.815Z,99.44
2022-07-31T02:22:05.157Z,99.54
2022-07-31T02:23:05.824Z,99.92
2022-07-31T02:24:06.022Z,99.54
2022-07-31T02:25:06.352Z,99.54
2022-07-31T02:26:06.554Z,99.99
2022-07-31T02:27:54.527Z,99.54
2022-07-31T02:28:15.522Z,99.05
2022-07-31T02:29:25.608Z,99.15
2022-07-31T02:30:17.104Z,99.73
2022-07-31T02:31:17.480Z,99.92
2022-07-31T02:32:17.655Z,99.63
2022-07-31T02:33:18.377Z,99.92
2022-07-31T02:34:18.698Z,99.92
2022-07-31T02:35:19.395Z,99.99
2022-07-31T02:36:19.593Z,99.99
2022-07-31T02:37:19.509Z,99.99
2022-07-31T02:38:28.103Z,99.99
2022-07-31T02:39:20.298Z,99.99
2022-07-31T02:40:20.687Z,99.63
2022-07-31T02:41:21.583Z,99.54
2022-07-31T02:42:22.477Z,99.99
2022-07-31T02:43:23.835Z,99.54
2022-07-31T02:44:32.795Z,99.73
2022-07-31T02:45:25.009Z,99.99
2022-07-31T02:46:25.721Z,99.82
2022-07-31T02:47:25.918Z,99.92
2022-07-31T02:48:26.424Z,99.73
2022-07-31T02:49:26.768Z,99.44
2022-07-31T02:50:26.890Z,99.44
2022-07-31T02:51:27.470Z,99.82
2022-07-31T02:52:27.567Z,99.82
2022-07-31T02:53:28.592Z,99.82
2022-07-31T02:54:29.206Z,99.99
2022-07-31T02:55:30.244Z,99.82
2022-07-31T02:56:32.727Z,99.82
2022-07-31T02:57:31.350Z,99.63
2022-07-31T02:58:32.692Z,99.63
2022-07-31T02:59:32.589Z,99.92
2022-07-31T03:00:33.018Z,99.54
2022-07-31T03:01:33.383Z,99.92
2022-07-31T03:02:43.524Z,99.73
2022-07-31T03:03:34.826Z,99.99
2022-07-31T03:04:35.516Z,99.99
2022-07-31T03:05:35.435Z,99.99
2022-07-31T03:06:36.631Z,99.99
2022-07-31T03:07:37.118Z,99.99
2022-07-31T03:08:37.923Z,99.99
2022-07-31T03:09:37.272Z,99.63
2022-07-31T03:10:38.528Z,99.63
2022-07-31T03:11:38.727Z,99.73
2022-07-31T03:12:39.647Z,99.99
2022-07-31T03:13:40.146Z,99.99
2022-07-31T03:14:41.463Z,99.92
2022-07-31T03:15:41.960Z,99.92
2022-07-31T03:16:41.830Z,99.99
2022-07-31T03:17:46.396Z,99.99
2022-07-31T03:18:42.867Z,99.99
2022-07-31T03:19:43.057Z,99.92
2022-07-31T03:20:43.218Z,99.82
2022-07-31T03:21:44.438Z,99.73
2022-07-31T03:22:45.363Z,99.99
2022-07-31T03:23:46.298Z,99.99
2022-07-31T03:24:46.900Z,99.99
2022-07-31T03:25:47.325Z,99.99
2022-07-31T03:26:47.824Z,99.99
2022-07-31T03:27:58.098Z,99.99
2022-07-31T03:28:49.320Z,99.99
2022-07-31T03:29:49.222Z,99.99
2022-07-31T03:30:50.423Z,99.92
2022-07-31T03:31:50.995Z,99.92
2022-07-31T03:32:51.874Z,99.99
2022-07-31T03:33:52.597Z,99.99
2022-07-31T03:34:53.521Z,99.99
2022-07-31T03:35:53.734Z,99.73
2022-07-31T03:36:53.632Z,99.92
2022-07-31T03:37:54.575Z,99.92
2022-07-31T03:38:56.292Z,99.73
2022-07-31T03:39:56.192Z,99.25
2022-07-31T03:40:56.103Z,99.73
2022-07-31T03:41:56.726Z,99.44
2022-07-31T03:42:57.944Z,99.82
2022-07-31T03:43:58.492Z,99.92
2022-07-31T03:44:58.816Z,99.82
2022-07-31T03:46:00.014Z,99.73
2022-07-31T03:47:00.635Z,99.82
2022-07-31T03:48:00.830Z,99.82
2022-07-31T03:49:01.875Z,99.92
2022-07-31T03:50:02.396Z,99.73
2022-07-31T03:51:03.318Z,99.54
2022-07-31T03:52:06.423Z,99.73
2022-07-31T03:53:04.175Z,99.82
2022-07-31T03:54:05.025Z,99.73
2022-07-31T03:55:05.246Z,99.44
2022-07-31T03:56:06.440Z,99.73
2022-07-31T03:57:06.651Z,99.25
2022-07-31T03:58:07.474Z,99.25
2022-07-31T03:59:09.113Z,99.25
2022-07-31T04:00:12.412Z,99.05
2022-07-31T04:01:12.734Z,99.34
2022-07-31T04:02:18.735Z,99.05
2022-07-31T04:03:11.614Z,99.05
2022-07-31T04:04:11.340Z,99.25
2022-07-31T04:05:15.405Z,99.15
2022-07-31T04:06:13.551Z,99.05
2022-07-31T04:07:12.177Z,99.15
2022-07-31T04:08:13.274Z,99.82
2022-07-31T04:09:23.658Z,98.96
2022-07-31T04:10:14.571Z,99.34
2022-07-31T04:11:15.213Z,99.25
2022-07-31T04:12:15.122Z,98.96
2022-07-31T04:13:15.624Z,99.05
2022-07-31T04:14:16.641Z,99.82
2022-07-31T04:15:17.681Z,99.44
2022-07-31T04:16:18.602Z,99.54
2022-07-31T04:17:18.802Z,99.05
2022-07-31T04:18:19.358Z,99.25
2022-07-31T04:19:20.299Z,99.82
2022-07-31T04:20:20.222Z,99.99
2022-07-31T04:21:20.717Z,99.73
2022-07-31T04:22:20.610Z,99.54
2022-07-31T04:23:21.863Z,99.44
2022-07-31T04:24:27.541Z,99.99
2022-07-31T04:25:27.754Z,99.99
2022-07-31T04:26:31.573Z,99.99
2022-07-31T04:27:28.771Z,99.73
2022-07-31T04:28:29.856Z,99.63
2022-07-31T04:29:30.078Z,99.99
2022-07-31T04:30:30.001Z,99.99
2022-07-31T04:31:30.621Z,99.99
2022-07-31T04:32:31.823Z,99.99
2022-07-31T04:33:32.761Z,99.99
2022-07-31T04:34:34.011Z,99.92
2022-07-31T04:35:34.229Z,99.44
2022-07-31T04:36:36.206Z,99.92
2022-07-31T04:37:35.104Z,99.92
2022-07-31T04:38:35.490Z,99.92
2022-07-31T04:39:35.711Z,99.73
2022-07-31T04:40:36.059Z,99.63
2022-07-31T04:41:36.276Z,99.63
2022-07-31T04:42:38.292Z,99.92
2022-07-31T04:43:37.220Z,99.63
2022-07-31T04:44:37.511Z,99.73
2022-07-31T04:45:37.413Z,99.34
2022-07-31T04:46:38.617Z,99.99
2022-07-31T04:47:38.839Z,99.99
2022-07-31T04:48:39.174Z,99.99
2022-07-31T04:49:40.117Z,99.73
2022-07-31T04:50:40.616Z,99.44
2022-07-31T04:51:41.531Z,99.73
2022-07-31T04:52:41.732Z,99.82
2022-07-31T04:53:44.038Z,99.99
2022-07-31T04:54:42.343Z,99.99
2022-07-31T04:55:42.548Z,99.99
2022-07-31T04:56:43.484Z,99.99
2022-07-31T04:57:43.984Z,99.99
2022-07-31T04:58:44.900Z,99.99
2022-07-31T05:00:05.144Z,99.99
2022-07-31T05:00:45.773Z,99.99
2022-07-31T05:01:47.102Z,99.99
2022-07-31T05:02:47.906Z,99.99
2022-07-31T05:03:48.410Z,99.99
2022-07-31T05:04:52.644Z,99.99
2022-07-31T05:05:49.318Z,99.99
2022-07-31T05:06:49.660Z,99.97
2022-07-31T05:07:50.166Z,99.58
2022-07-31T05:08:50.513Z,99.78
2022-07-31T05:09:51.788Z,99.68
2022-07-31T05:10:51.719Z,99.49
2022-07-31T05:11:52.214Z,99.68
2022-07-31T05:12:52.431Z,98.63
2022-07-31T05:13:52.930Z,98.91
2022-07-31T05:14:53.669Z,98.91
2022-07-31T05:15:54.772Z,99.01
2022-07-31T05:16:54.977Z,98.91
2022-07-31T05:17:55.473Z,99.3
2022-07-31T05:18:55.841Z,98.91
2022-07-31T05:19:56.593Z,99.58
2022-07-31T05:20:57.236Z,99.49
2022-07-31T05:22:02.270Z,99.68
2022-07-31T05:22:58.740Z,99.49
2022-07-31T05:23:59.126Z,99.68
2022-07-31T05:24:59.533Z,99.01
2022-07-31T05:26:00.435Z,98.82
2022-07-31T05:27:00.359Z,98.72
2022-07-31T05:28:00.984Z,99.01
2022-07-31T05:29:03.713Z,99.25
2022-07-31T05:30:02.961Z,98.86
2022-07-31T05:31:03.166Z,98.68
2022-07-31T05:32:15.835Z,98.48
2022-07-31T05:33:04.250Z,98.58
2022-07-31T05:34:04.860Z,98.1
2022-07-31T05:35:05.597Z,98.19
2022-07-31T05:36:06.368Z,98.29
2022-07-31T05:37:07.141Z,98.48
2022-07-31T05:38:06.759Z,98.39
2022-07-31T05:39:06.990Z,98.77
2022-07-31T05:40:08.190Z,99.15
2022-07-31T05:41:08.788Z,98.96
2022-07-31T05:42:09.741Z,98.96
2022-07-31T05:43:09.639Z,98.96
2022-07-31T05:44:10.140Z,99.06
2022-07-31T05:45:10.449Z,99.06
2022-07-31T05:46:11.369Z,98.96
2022-07-31T05:47:11.872Z,98.58
2022-07-31T05:48:12.520Z,98.77
2022-07-31T05:49:13.537Z,98.86
2022-07-31T05:50:13.814Z,98.77
2022-07-31T05:51:14.036Z,98.68
2022-07-31T05:52:14.381Z,99.25
2022-07-31T05:53:15.012Z,99.35
2022-07-31T05:54:16.201Z,99.35
2022-07-31T05:55:16.489Z,99.54
2022-07-31T05:56:17.103Z,99.78
2022-07-31T05:57:38.457Z,99.58
2022-07-31T05:58:21.917Z,99.1
2022-07-31T05:59:18.836Z,99.01
2022-07-31T06:00:19.959Z,99.49
2022-07-31T06:01:19.724Z,99.49
2022-07-31T06:02:19.643Z,99.99
2022-07-31T06:03:19.533Z,99.99
2022-07-31T06:04:20.154Z,99.99
2022-07-31T06:05:20.805Z,99.87
2022-07-31T06:06:22.532Z,99.99
2022-07-31T06:07:22.040Z,99.99
2022-07-31T06:08:22.753Z,99.99
2022-07-31T06:09:23.370Z,99.99
2022-07-31T06:10:23.599Z,99.99
2022-07-31T06:11:23.937Z,99.99
2022-07-31T06:12:25.160Z,99.99
2022-07-31T06:13:26.004Z,99.99
2022-07-31T06:14:26.219Z,99.99
2022-07-31T06:15:26.938Z,99.99
2022-07-31T06:16:28.496Z,99.99
2022-07-31T06:17:40.511Z,99.99
2022-07-31T06:18:28.401Z,99.99
2022-07-31T06:19:30.239Z,99.99
2022-07-31T06:20:29.452Z,99.99
2022-07-31T06:21:35.556Z,99.99
2022-07-31T06:22:31.077Z,99.99
2022-07-31T06:23:37.788Z,99.99
2022-07-31T06:24:33.618Z,99.99
2022-07-31T06:25:43.953Z,99.99
2022-07-31T06:26:34.987Z,99.99
2022-07-31T06:27:40.277Z,99.99
2022-07-31T06:28:52.923Z,99.99
2022-07-31T06:29:47.428Z,99.99
2022-07-31T06:30:35.624Z,99.99
2022-07-31T06:31:35.824Z,99.87
2022-07-31T06:32:36.455Z,99.78
2022-07-31T06:33:43.469Z,99.49
2022-07-31T06:34:37.715Z,99.78
2022-07-31T06:35:38.719Z,99.99
2022-07-31T06:36:39.530Z,99.06
2022-07-31T06:37:39.729Z,98.82
2022-07-31T06:38:40.630Z,98.96
2022-07-31T06:40:00.670Z,99.54
2022-07-31T06:40:41.640Z,98.96
2022-07-31T06:41:42.261Z,98.86
2022-07-31T06:42:42.884Z,98.96
2022-07-31T06:43:43.786Z,99.15
2022-07-31T06:44:51.570Z,99.73
2022-07-31T06:45:58.771Z,99.35
2022-07-31T06:46:58.969Z,99.92
2022-07-31T06:48:00.011Z,99.54
2022-07-31T06:49:00.102Z,99.35
2022-07-31T06:50:00.684Z,99.06
2022-07-31T06:51:33.427Z,98.58
2022-07-31T06:52:01.780Z,98.68
2022-07-31T06:53:02.108Z,98.48
2022-07-31T06:54:03.030Z,98.58
2022-07-31T06:55:03.232Z,98.58
2022-07-31T06:56:03.961Z,98.96
2022-07-31T06:57:04.920Z,98.86
2022-07-31T06:58:05.449Z,98.96
2022-07-31T06:59:05.952Z,98.96
2022-07-31T07:00:15.087Z,98.77
2022-07-31T07:01:07.719Z,98.39
2022-07-31T07:02:09.447Z,98
2022-07-31T07:03:08.642Z,98.48
2022-07-31T07:04:09.287Z,98.68
2022-07-31T07:05:12.398Z,98.68
2022-07-31T07:06:10.983Z,98.63
2022-07-31T07:07:11.907Z,98.44
2022-07-31T07:08:12.672Z,99.01
2022-07-31T07:09:13.319Z,99.25
2022-07-31T07:10:13.515Z,99.59
2022-07-31T07:11:17.762Z,99.88
2022-07-31T07:12:21.856Z,99.78
2022-07-31T07:13:15.869Z,99.11
2022-07-31T07:14:16.726Z,98.53
2022-07-31T07:15:16.655Z,98.53
2022-07-31T07:16:17.940Z,99.21
2022-07-31T07:17:18.338Z,99.11
2022-07-31T07:18:18.188Z,99.21
2022-07-31T07:19:19.087Z,98.63
2022-07-31T07:20:19.589Z,98.82
2022-07-31T07:21:19.792Z,98.91
2022-07-31T07:22:20.413Z,99.01
2022-07-31T07:23:21.363Z,98.63
2022-07-31T07:24:22.262Z,98.44
2022-07-31T07:26:23.682Z,97.96
2022-07-31T07:27:24.621Z,99.01
2022-07-31T07:28:36.385Z,98.24
2022-07-31T07:29:27.110Z,98.53
2022-07-31T07:30:26.435Z,98.24
2022-07-31T07:31:27.629Z,98.63
2022-07-31T07:32:27.549Z,99.68
2022-07-31T07:33:47.235Z,99.59
2022-07-31T07:34:29.455Z,99.4
2022-07-31T07:35:33.894Z,99.49
2022-07-31T07:36:30.414Z,99.68
2022-07-31T07:37:30.618Z,99.4
2022-07-31T07:38:31.880Z,99.01
2022-07-31T07:39:31.461Z,99.11
2022-07-31T07:40:31.689Z,99.3
2022-07-31T07:41:31.624Z,99.01
2022-07-31T07:42:32.845Z,98.82
2022-07-31T07:43:33.465Z,98.34
2022-07-31T07:45:34.833Z,98.68
2022-07-31T07:46:35.859Z,98.96
2022-07-31T07:48:10.624Z,99.35
2022-07-31T07:50:37.399Z,97.81
2022-07-31T07:52:42.228Z,98.19
2022-07-31T07:53:39.825Z,98.19
2022-07-31T07:54:39.740Z,98.49
2022-07-31T07:55:43.010Z,98.29
2022-07-31T07:56:41.721Z,98.49
2022-07-31T07:57:42.217Z,98.49
2022-07-31T07:58:42.865Z,98.58
2022-07-31T07:59:43.362Z,98.58
2022-07-31T08:00:43.911Z,98.29
2022-07-31T08:01:44.121Z,98.14
2022-07-31T08:03:03.071Z,98.14
2022-07-31T08:04:08.314Z,98
2022-07-31T08:05:09.559Z,98.14
2022-07-31T08:06:10.101Z,98.24
2022-07-31T08:07:10.439Z,98.72
2022-07-31T08:08:11.308Z,98.24
2022-07-31T08:09:12.048Z,98.05
2022-07-31T08:10:15.456Z,97.67
2022-07-31T08:11:17.218Z,97.28
2022-07-31T08:12:14.927Z,96.61
2022-07-31T08:13:13.886Z,96.99
2022-07-31T08:14:15.184Z,97.09
2022-07-31T08:15:15.737Z,97.19
2022-07-31T08:16:16.180Z,96.32
2022-07-31T08:17:17.925Z,96.7
2022-07-31T08:18:17.862Z,96.42
2022-07-31T08:22:18.984Z,94.73
2022-07-31T08:23:23.524Z,95.02
2022-07-31T08:24:20.020Z,94.25
2022-07-31T08:25:20.478Z,94.92
2022-07-31T08:26:20.495Z,94.92
2022-07-31T08:27:21.471Z,95.4
2022-07-31T08:28:24.829Z,95.26
2022-07-31T08:29:32.981Z,95.84
2022-07-31T08:30:22.428Z,95.07
2022-07-31T08:31:23.052Z,94.49
2022-07-31T08:32:23.982Z,94.59
2022-07-31T08:33:24.612Z,94.06
2022-07-31T08:34:41.749Z,94.24
2022-07-31T08:35:26.016Z,94.44
2022-07-31T08:36:26.923Z,93.76
2022-07-31T08:38:10.761Z,94.1
2022-07-31T08:39:17.530Z,92.94
2022-07-31T08:40:12.754Z,92.12
2022-07-31T08:41:13.164Z,92.5
2022-07-31T08:42:13.370Z,91.35
2022-07-31T08:44:05.903Z,90.87
2022-07-31T08:44:31.878Z,91.01
2022-07-31T08:45:23.104Z,90.33
2022-07-31T08:46:23.501Z,89.07
2022-07-31T08:47:24.459Z,89.17
2022-07-31T08:48:24.772Z,91.01
2022-07-31T08:49:25.855Z,91.05
2022-07-31T08:50:26.086Z,90.47
2022-07-31T08:51:26.432Z,89.61
2022-07-31T08:52:27.338Z,88.35
2022-07-31T08:53:27.616Z,86.61
2022-07-31T08:54:27.832Z,85.64
2022-07-31T08:56:01.124Z,85.78
2022-07-31T08:56:29.352Z,85.4
2022-07-31T08:57:29.558Z,85.3
2022-07-31T08:58:30.262Z,84.33
2022-07-31T09:00:30.785Z,84.47
2022-07-31T09:01:31.670Z,84.47
2022-07-31T09:02:32.210Z,83.41
2022-07-31T09:03:32.439Z,81.81
2022-07-31T09:04:33.374Z,80.74
2022-07-31T09:05:47.995Z,80.36
2022-07-31T09:06:35.209Z,81.75
2022-07-31T09:07:35.420Z,81.32
2022-07-31T09:08:35.756Z,80.59
2022-07-31T09:09:57.299Z,80.01
2022-07-31T09:10:37.198Z,80.11
2022-07-31T09:11:37.928Z,78.85
2022-07-31T09:12:39.720Z,76.33
2022-07-31T09:13:38.799Z,74.59
2022-07-31T09:14:39.168Z,74.88
2022-07-31T09:15:40.377Z,77.14
2022-07-31T09:16:41.037Z,75.89
2022-07-31T09:17:41.249Z,75.02
2022-07-31T09:18:41.367Z,77.78
2022-07-31T09:19:59.057Z,78.08
2022-07-31T09:20:43.383Z,76.33
2022-07-31T09:21:44.317Z,75.98
2022-07-31T09:22:44.523Z,76.28
2022-07-31T09:23:44.814Z,75.83
2022-07-31T09:24:46.029Z,77.22
2022-07-31T09:25:46.537Z,76.58
2022-07-31T09:26:47.043Z,74.74
2022-07-31T09:27:47.547Z,73.48
2022-07-31T09:28:48.058Z,74.16
2022-07-31T09:29:48.988Z,74.84
2022-07-31T09:31:02.272Z,74.54
2022-07-31T09:31:50.230Z,73.74
2022-07-31T09:32:50.662Z,71.03
2022-07-31T09:33:51.757Z,69.51
2022-07-31T09:34:52.264Z,68.99
2022-07-31T09:35:52.192Z,66.4
2022-07-31T09:36:52.699Z,66.69
2022-07-31T09:37:53.275Z,67.86
2022-07-31T09:38:54.555Z,69.84
2022-07-31T09:39:57.922Z,68.8
2022-07-31T09:41:02.681Z,66.02
2022-07-31T09:42:28.883Z,61.08
2022-07-31T09:43:31.328Z,62.35
2022-07-31T09:44:31.845Z,63.02
2022-07-31T09:45:31.506Z,61.11
2022-07-31T09:46:32.448Z,59.64
2022-07-31T09:47:32.674Z,60.23
2022-07-31T09:48:34.123Z,60.78
2022-07-31T09:49:34.193Z,62.54
2022-07-31T09:50:34.632Z,63.19
2022-07-31T09:51:34.863Z,62.67
2022-07-31T09:52:34.807Z,62.87
2022-07-31T09:53:37.614Z,63.42
2022-07-31T09:54:36.234Z,63.68
2022-07-31T09:55:37.461Z,64.07
2022-07-31T09:56:38.381Z,65.01
2022-07-31T09:57:39.337Z,65.5
2022-07-31T09:58:39.712Z,66.72
2022-07-31T09:59:41.015Z,67.11
2022-07-31T10:00:41.379Z,66.44
2022-07-31T10:01:42.266Z,67.02
2022-07-31T10:02:42.767Z,68.28
2022-07-31T10:03:42.697Z,69.54
2022-07-31T10:04:43.636Z,69.02
2022-07-31T10:05:43.874Z,66.99
2022-07-31T10:06:44.525Z,67.76
2022-07-31T10:07:44.437Z,67.05
2022-07-31T10:08:44.946Z,66.66
2022-07-31T10:09:45.343Z,68.6
2022-07-31T10:10:45.855Z,68.51
2022-07-31T10:11:46.364Z,67.73
2022-07-31T10:12:46.872Z,67.89
2022-07-31T10:13:47.982Z,69.57
2022-07-31T10:14:47.310Z,70.51
2022-07-31T10:15:48.223Z,71.19
2022-07-31T10:16:49.596Z,70.03
2022-07-31T10:17:50.368Z,69.93
2022-07-31T10:18:50.579Z,69.83
2022-07-31T10:19:52.572Z,68.37
2022-07-31T10:20:52.078Z,68.73
2022-07-31T10:21:52.679Z,68.92
2022-07-31T10:22:52.910Z,69.7
2022-07-31T10:23:53.564Z,69.41
2022-07-31T10:24:53.550Z,69.5
2022-07-31T10:25:59.394Z,69.7
2022-07-31T10:27:08.047Z,70.54
2022-07-31T10:27:55.861Z,71.12
2022-07-31T10:28:56.059Z,70.25
2022-07-31T10:29:57.344Z,70.73
2022-07-31T10:30:57.993Z,72.18
2022-07-31T10:31:59.316Z,72.53
2022-07-31T10:32:59.247Z,72.44
2022-07-31T10:33:59.894Z,72.53
2022-07-31T10:35:00.124Z,71.95
2022-07-31T10:36:01.087Z,69.82
2022-07-31T10:37:00.589Z,69.82
2022-07-31T10:38:00.444Z,70.56
2022-07-31T10:39:01.094Z,70.76
2022-07-31T10:40:01.782Z,71.34
2022-07-31T10:41:01.680Z,70.95
2022-07-31T10:42:02.906Z,72.21
2022-07-31T10:43:03.218Z,70.66
2022-07-31T10:44:03.887Z,70.47
2022-07-31T10:45:04.093Z,71.4
2022-07-31T10:46:04.291Z,71.3
2022-07-31T10:47:05.070Z,72.46
2022-07-31T10:48:05.917Z,72.95
2022-07-31T10:49:14.004Z,73.04
2022-07-31T10:50:07.859Z,73.24
2022-07-31T10:51:08.225Z,73.33
2022-07-31T10:52:08.435Z,74.59
2022-07-31T10:53:09.059Z,74.21
2022-07-31T10:54:10.317Z,74.11
2022-07-31T10:55:10.711Z,74.69
2022-07-31T10:56:11.677Z,73.43
2022-07-31T10:57:13.318Z,74.11
2022-07-31T10:58:13.544Z,74.4
2022-07-31T10:59:17.627Z,74.49
2022-07-31T11:00:14.329Z,74.49
2022-07-31T11:01:17.479Z,74.49
2022-07-31T11:02:15.483Z,74.4
2022-07-31T11:03:17.521Z,74.15
2022-07-31T11:04:15.754Z,74.92
2022-07-31T11:05:16.018Z,74.53
2022-07-31T11:06:17.248Z,73.89
2022-07-31T11:07:17.578Z,75.24
2022-07-31T11:08:18.231Z,73.11
2022-07-31T11:09:18.648Z,72.05
2022-07-31T11:10:18.922Z,72.18
2022-07-31T11:11:21.578Z,72.09
2022-07-31T11:12:20.959Z,73.15
2022-07-31T11:13:21.159Z,72.67
2022-07-31T11:14:22.053Z,73.58
2022-07-31T11:15:22.700Z,72.83
2022-07-31T11:16:23.639Z,69.93
2022-07-31T11:18:31.189Z,70.31
2022-07-31T11:18:51.052Z,70.61
2022-07-31T11:19:52.260Z,69.64
2022-07-31T11:20:52.975Z,69.44
2022-07-31T11:21:53.819Z,69.34
2022-07-31T11:22:54.188Z,71.28
2022-07-31T11:24:11.595Z,70.51
2022-07-31T11:24:55.561Z,69.93
2022-07-31T11:25:55.900Z,70.12
2022-07-31T11:26:56.533Z,68.28
2022-07-31T11:27:57.039Z,69.73
2022-07-31T11:28:58.247Z,68.41
2022-07-31T11:30:25.285Z,68.99
2022-07-31T11:31:25.606Z,70.15
2022-07-31T11:32:31.156Z,68.31
2022-07-31T11:33:26.090Z,68.89
2022-07-31T11:34:26.652Z,68.7
2022-07-31T11:35:27.160Z,67.83
2022-07-31T11:36:28.101Z,67.73
2022-07-31T11:37:30.725Z,67.89
2022-07-31T11:38:30.062Z,68.86
2022-07-31T11:39:41.857Z,68.86
2022-07-31T11:40:32.851Z,69.54
2022-07-31T11:41:38.107Z,69.5
2022-07-31T11:42:36.297Z,70.18
2022-07-31T11:43:33.815Z,72.71
2022-07-31T11:44:34.029Z,70.28
2022-07-31T11:45:39.022Z,70.47
2022-07-31T11:46:35.081Z,70.47
2022-07-31T11:48:15.643Z,70.34
2022-07-31T11:48:50.908Z,71.25
2022-07-31T11:49:54.959Z,71.44
2022-07-31T11:50:46.960Z,72.51
2022-07-31T11:51:47.745Z,71.93
2022-07-31T11:52:48.694Z,70.76
2022-07-31T11:53:51.212Z,70.47
2022-07-31T11:54:49.213Z,70.7
2022-07-31T11:55:50.036Z,71.67
2022-07-31T11:56:50.568Z,68.28
2022-07-31T11:57:57.623Z,68.66
2022-07-31T11:58:51.271Z,69.38
2022-07-31T11:59:54.924Z,68.51
2022-07-31T12:00:52.052Z,69.76
2022-07-31T12:01:52.487Z,70.93
2022-07-31T12:02:53.571Z,69.96
2022-07-31T12:03:53.846Z,68.83
2022-07-31T12:04:54.524Z,68.35
2022-07-31T12:05:55.458Z,68.44
2022-07-31T12:06:56.091Z,69.06
2022-07-31T12:07:56.314Z,68.28
2022-07-31T12:08:57.551Z,67.31
2022-07-31T12:10:09.170Z,66.63
2022-07-31T12:11:07.801Z,66.05
2022-07-31T12:12:09.102Z,66.6
2022-07-31T12:13:12.878Z,66.69
2022-07-31T12:14:09.977Z,65.33
2022-07-31T12:15:10.893Z,65.92
2022-07-31T12:16:11.439Z,65.63
2022-07-31T12:17:12.163Z,64.75
2022-07-31T12:18:11.744Z,65.63
2022-07-31T12:19:12.380Z,66.99
2022-07-31T12:20:12.609Z,67.11
2022-07-31T12:21:13.154Z,66.14
2022-07-31T12:22:14.432Z,64.59
2022-07-31T12:23:46.607Z,65.47
2022-07-31T12:24:15.644Z,64.88
2022-07-31T12:25:16.582Z,65.95
2022-07-31T12:26:17.090Z,65.3
2022-07-31T12:27:18.636Z,66.86
2022-07-31T12:28:17.576Z,67.73
2022-07-31T12:29:18.442Z,68.22
2022-07-31T12:30:18.683Z,66.37
2022-07-31T12:31:18.878Z,65.59
2022-07-31T12:32:19.876Z,65.59
2022-07-31T12:33:20.088Z,63.55
2022-07-31T12:34:21.317Z,63.45
2022-07-31T12:35:21.535Z,64.81
2022-07-31T12:36:21.568Z,62.71
2022-07-31T12:37:22.496Z,61.8
2022-07-31T12:38:45.661Z,63
2022-07-31T12:39:23.945Z,62.61
2022-07-31T12:40:24.205Z,61.93
2022-07-31T12:41:24.715Z,63.42
2022-07-31T12:42:40.965Z,63.59
2022-07-31T12:43:26.289Z,62.64
2022-07-31T12:44:27.337Z,62.93
2022-07-31T12:45:27.568Z,64.56
2022-07-31T12:46:27.847Z,61.96
2022-07-31T12:47:31.609Z,62.93
2022-07-31T12:48:29.118Z,62.45
2022-07-31T12:49:29.582Z,60.6
2022-07-31T12:50:29.514Z,60.79
2022-07-31T12:51:51.670Z,62.74
2022-07-31T12:52:39.724Z,62.57
2022-07-31T12:53:40.697Z,61.8
2022-07-31T12:54:44.970Z,60.92
2022-07-31T12:55:42.176Z,60.72
2022-07-31T12:56:42.992Z,60.82
2022-07-31T12:57:56.710Z,58.97
2022-07-31T12:58:43.954Z,58.59
2022-07-31T12:59:44.180Z,59.17
2022-07-31T13:00:45.765Z,58.2
2022-07-31T13:01:45.924Z,58.49
2022-07-31T13:02:46.466Z,58.65
2022-07-31T13:03:51.669Z,58.17
2022-07-31T13:04:48.445Z,59.72
2022-07-31T13:05:51.976Z,60.89
2022-07-31T13:06:49.370Z,61.67
2022-07-31T13:07:49.988Z,61.57
2022-07-31T13:08:50.948Z,60.99
2022-07-31T13:10:32.424Z,61.99
2022-07-31T13:10:52.220Z,59.72
2022-07-31T13:11:57.689Z,58.95
2022-07-31T13:12:53.328Z,58.46
2022-07-31T13:13:53.826Z,58.56
2022-07-31T13:14:54.765Z,58.65
2022-07-31T13:15:54.984Z,60.6
2022-07-31T13:16:55.190Z,60.6
2022-07-31T13:17:56.707Z,60.89
2022-07-31T13:18:56.937Z,59.92
2022-07-31T13:19:57.570Z,62.84
2022-07-31T13:20:58.692Z,60.89
2022-07-31T13:22:02.047Z,62.06
2022-07-31T13:22:59.326Z,62.84